sensor_id;sensor_type;location;lat;lon;timestamp;P1;durP1;ratioP1;P2;durP2;ratioP2
36191;SDS011;22233;42.708;23.360;2023-01-16T00:00:59;35.17;;;19.63;;
36191;SDS011;22233;42.708;23.360;2023-01-16T00:03:25;32.08;;;18.08;;
36191;SDS011;22233;42.708;23.360;2023-01-16T00:05:51;32.15;;;17.88;;
36191;SDS011;22233;42.708;23.360;2023-01-16T00:08:17;30.98;;;18.08;;
36191;SDS011;22233;42.708;23.360;2023-01-16T00:10:43;28.42;;;16.10;;
36191;SDS011;22233;42.708;23.360;2023-01-16T00:13:12;33.40;;;18.45;;
36191;SDS011;22233;42.708;23.360;2023-01-16T00:15:39;25.33;;;15.23;;
36191;SDS011;22233;42.708;23.360;2023-01-16T00:18:08;28.75;;;15.90;;
36191;SDS011;22233;42.708;23.360;2023-01-16T00:20:34;26.08;;;15.05;;
36191;SDS011;22233;42.708;23.360;2023-01-16T00:22:59;26.20;;;14.55;;
36191;SDS011;22233;42.708;23.360;2023-01-16T00:25:25;28.58;;;16.70;;
36191;SDS011;22233;42.708;23.360;2023-01-16T00:27:50;33.33;;;16.75;;
36191;SDS011;22233;42.708;23.360;2023-01-16T00:30:15;26.50;;;15.35;;
36191;SDS011;22233;42.708;23.360;2023-01-16T00:32:41;29.80;;;16.75;;
36191;SDS011;22233;42.708;23.360;2023-01-16T00:35:06;26.08;;;16.25;;
36191;SDS011;22233;42.708;23.360;2023-01-16T00:37:32;30.70;;;17.70;;
36191;SDS011;22233;42.708;23.360;2023-01-16T00:39:57;30.27;;;17.02;;
36191;SDS011;22233;42.708;23.360;2023-01-16T00:42:23;27.15;;;17.75;;
36191;SDS011;22233;42.708;23.360;2023-01-16T00:44:48;31.77;;;18.67;;
36191;SDS011;22233;42.708;23.360;2023-01-16T00:47:13;30.25;;;16.70;;
36191;SDS011;22233;42.708;23.360;2023-01-16T00:49:39;31.02;;;17.88;;
36191;SDS011;22233;42.708;23.360;2023-01-16T00:52:04;25.67;;;15.85;;
36191;SDS011;22233;42.708;23.360;2023-01-16T00:54:30;31.80;;;18.02;;
36191;SDS011;22233;42.708;23.360;2023-01-16T00:56:55;30.30;;;17.30;;
36191;SDS011;22233;42.708;23.360;2023-01-16T00:59:20;25.98;;;15.38;;
36191;SDS011;22233;42.708;23.360;2023-01-16T01:01:46;25.42;;;15.57;;
36191;SDS011;22233;42.708;23.360;2023-01-16T01:04:12;27.08;;;16.25;;
36191;SDS011;22233;42.708;23.360;2023-01-16T01:06:37;26.35;;;15.75;;
36191;SDS011;22233;42.708;23.360;2023-01-16T01:09:04;26.70;;;16.13;;
36191;SDS011;22233;42.708;23.360;2023-01-16T01:11:29;25.40;;;14.55;;
36191;SDS011;22233;42.708;23.360;2023-01-16T01:13:54;25.88;;;15.10;;
36191;SDS011;22233;42.708;23.360;2023-01-16T01:16:20;25.67;;;15.32;;
36191;SDS011;22233;42.708;23.360;2023-01-16T01:18:45;28.40;;;14.35;;
36191;SDS011;22233;42.708;23.360;2023-01-16T01:21:11;31.55;;;17.83;;
36191;SDS011;22233;42.708;23.360;2023-01-16T01:23:36;27.20;;;15.27;;
36191;SDS011;22233;42.708;23.360;2023-01-16T01:26:20;26.95;;;15.60;;
36191;SDS011;22233;42.708;23.360;2023-01-16T01:28:45;29.10;;;14.25;;
36191;SDS011;22233;42.708;23.360;2023-01-16T01:31:11;31.05;;;16.27;;
36191;SDS011;22233;42.708;23.360;2023-01-16T01:33:37;30.33;;;16.57;;
36191;SDS011;22233;42.708;23.360;2023-01-16T01:36:03;32.03;;;20.02;;
36191;SDS011;22233;42.708;23.360;2023-01-16T01:40:56;26.73;;;15.05;;
36191;SDS011;22233;42.708;23.360;2023-01-16T01:43:37;29.40;;;16.48;;
36191;SDS011;22233;42.708;23.360;2023-01-16T01:46:31;29.25;;;18.35;;
36191;SDS011;22233;42.708;23.360;2023-01-16T01:49:07;23.55;;;16.00;;
36191;SDS011;22233;42.708;23.360;2023-01-16T01:51:41;26.90;;;16.00;;
36191;SDS011;22233;42.708;23.360;2023-01-16T01:54:09;29.13;;;14.90;;
36191;SDS011;22233;42.708;23.360;2023-01-16T01:56:47;24.95;;;15.15;;
36191;SDS011;22233;42.708;23.360;2023-01-16T01:59:29;26.65;;;15.73;;
36191;SDS011;22233;42.708;23.360;2023-01-16T02:01:59;24.92;;;15.55;;
36191;SDS011;22233;42.708;23.360;2023-01-16T02:04:28;33.00;;;18.63;;
36191;SDS011;22233;42.708;23.360;2023-01-16T02:06:58;25.80;;;15.68;;
36191;SDS011;22233;42.708;23.360;2023-01-16T02:09:27;29.63;;;16.77;;
36191;SDS011;22233;42.708;23.360;2023-01-16T02:11:54;28.70;;;15.40;;
36191;SDS011;22233;42.708;23.360;2023-01-16T02:14:22;28.30;;;16.10;;
36191;SDS011;22233;42.708;23.360;2023-01-16T02:16:53;25.40;;;16.73;;
36191;SDS011;22233;42.708;23.360;2023-01-16T02:28:37;25.88;;;15.38;;
36191;SDS011;22233;42.708;23.360;2023-01-16T02:42:28;35.33;;;19.95;;
36191;SDS011;22233;42.708;23.360;2023-01-16T02:50:38;45.83;;;23.23;;
36191;SDS011;22233;42.708;23.360;2023-01-16T02:53:19;36.28;;;21.30;;
36191;SDS011;22233;42.708;23.360;2023-01-16T02:55:57;36.08;;;21.05;;
36191;SDS011;22233;42.708;23.360;2023-01-16T02:58:33;40.28;;;22.40;;
36191;SDS011;22233;42.708;23.360;2023-01-16T03:01:02;46.58;;;22.80;;
36191;SDS011;22233;42.708;23.360;2023-01-16T03:05:57;41.80;;;23.00;;
36191;SDS011;22233;42.708;23.360;2023-01-16T03:08:46;43.15;;;23.48;;
36191;SDS011;22233;42.708;23.360;2023-01-16T03:13:55;38.85;;;21.85;;
36191;SDS011;22233;42.708;23.360;2023-01-16T03:16:28;45.25;;;23.73;;
36191;SDS011;22233;42.708;23.360;2023-01-16T03:21:50;38.70;;;20.63;;
36191;SDS011;22233;42.708;23.360;2023-01-16T03:35:14;33.45;;;18.33;;
36191;SDS011;22233;42.708;23.360;2023-01-16T03:37:49;34.17;;;18.48;;
36191;SDS011;22233;42.708;23.360;2023-01-16T03:40:36;34.33;;;17.10;;
36191;SDS011;22233;42.708;23.360;2023-01-16T03:45:33;32.00;;;17.30;;
36191;SDS011;22233;42.708;23.360;2023-01-16T03:48:06;33.72;;;18.08;;
36191;SDS011;22233;42.708;23.360;2023-01-16T03:50:36;29.83;;;16.23;;
36191;SDS011;22233;42.708;23.360;2023-01-16T03:53:09;29.33;;;15.70;;
36191;SDS011;22233;42.708;23.360;2023-01-16T03:56:00;31.95;;;17.13;;
36191;SDS011;22233;42.708;23.360;2023-01-16T03:58:33;26.98;;;15.35;;
36191;SDS011;22233;42.708;23.360;2023-01-16T04:01:09;27.23;;;14.07;;
36191;SDS011;22233;42.708;23.360;2023-01-16T04:04:20;31.35;;;16.52;;
36191;SDS011;22233;42.708;23.360;2023-01-16T04:06:51;27.15;;;14.18;;
36191;SDS011;22233;42.708;23.360;2023-01-16T04:10:09;31.42;;;15.98;;
36191;SDS011;22233;42.708;23.360;2023-01-16T04:12:14;28.27;;;15.23;;
36191;SDS011;22233;42.708;23.360;2023-01-16T04:14:44;28.88;;;17.83;;
36191;SDS011;22233;42.708;23.360;2023-01-16T04:17:16;31.02;;;15.95;;
36191;SDS011;22233;42.708;23.360;2023-01-16T04:19:42;31.42;;;16.83;;
36191;SDS011;22233;42.708;23.360;2023-01-16T04:22:08;32.17;;;16.65;;
36191;SDS011;22233;42.708;23.360;2023-01-16T04:24:44;32.38;;;17.02;;
36191;SDS011;22233;42.708;23.360;2023-01-16T04:27:10;30.73;;;17.02;;
36191;SDS011;22233;42.708;23.360;2023-01-16T04:29:36;36.72;;;18.98;;
36191;SDS011;22233;42.708;23.360;2023-01-16T04:32:01;35.25;;;18.67;;
36191;SDS011;22233;42.708;23.360;2023-01-16T04:34:26;35.47;;;19.23;;
36191;SDS011;22233;42.708;23.360;2023-01-16T04:36:52;35.10;;;17.92;;
36191;SDS011;22233;42.708;23.360;2023-01-16T04:39:17;28.38;;;16.00;;
36191;SDS011;22233;42.708;23.360;2023-01-16T04:41:43;35.63;;;18.55;;
36191;SDS011;22233;42.708;23.360;2023-01-16T04:44:11;36.38;;;18.92;;
36191;SDS011;22233;42.708;23.360;2023-01-16T04:46:37;37.67;;;19.98;;
36191;SDS011;22233;42.708;23.360;2023-01-16T04:49:03;35.00;;;18.65;;
36191;SDS011;22233;42.708;23.360;2023-01-16T04:51:29;34.15;;;17.90;;
36191;SDS011;22233;42.708;23.360;2023-01-16T04:53:55;35.58;;;18.33;;
36191;SDS011;22233;42.708;23.360;2023-01-16T04:56:21;34.40;;;20.27;;
36191;SDS011;22233;42.708;23.360;2023-01-16T04:58:47;34.58;;;20.25;;
36191;SDS011;22233;42.708;23.360;2023-01-16T05:01:12;35.25;;;20.90;;
36191;SDS011;22233;42.708;23.360;2023-01-16T05:03:37;42.13;;;22.60;;
36191;SDS011;22233;42.708;23.360;2023-01-16T05:06:03;35.88;;;18.92;;
36191;SDS011;22233;42.708;23.360;2023-01-16T05:08:28;34.35;;;19.95;;
36191;SDS011;22233;42.708;23.360;2023-01-16T05:10:54;35.28;;;20.70;;
36191;SDS011;22233;42.708;23.360;2023-01-16T05:13:20;37.90;;;21.05;;
36191;SDS011;22233;42.708;23.360;2023-01-16T05:15:45;36.95;;;20.23;;
36191;SDS011;22233;42.708;23.360;2023-01-16T05:18:11;35.58;;;20.52;;
36191;SDS011;22233;42.708;23.360;2023-01-16T05:20:37;37.28;;;20.45;;
36191;SDS011;22233;42.708;23.360;2023-01-16T05:23:03;29.77;;;18.02;;
36191;SDS011;22233;42.708;23.360;2023-01-16T05:25:29;37.65;;;21.90;;
36191;SDS011;22233;42.708;23.360;2023-01-16T05:27:55;37.92;;;23.05;;
36191;SDS011;22233;42.708;23.360;2023-01-16T05:30:20;53.10;;;26.73;;
36191;SDS011;22233;42.708;23.360;2023-01-16T05:32:46;53.58;;;27.30;;
36191;SDS011;22233;42.708;23.360;2023-01-16T05:35:12;58.60;;;30.15;;
36191;SDS011;22233;42.708;23.360;2023-01-16T05:37:39;56.83;;;30.45;;
36191;SDS011;22233;42.708;23.360;2023-01-16T05:40:04;46.17;;;26.23;;
36191;SDS011;22233;42.708;23.360;2023-01-16T05:42:30;46.70;;;24.70;;
36191;SDS011;22233;42.708;23.360;2023-01-16T05:44:55;46.17;;;23.83;;
36191;SDS011;22233;42.708;23.360;2023-01-16T05:47:21;49.67;;;26.30;;
36191;SDS011;22233;42.708;23.360;2023-01-16T05:49:47;43.70;;;25.30;;
36191;SDS011;22233;42.708;23.360;2023-01-16T05:52:12;54.25;;;30.80;;
36191;SDS011;22233;42.708;23.360;2023-01-16T05:54:38;51.60;;;30.17;;
36191;SDS011;22233;42.708;23.360;2023-01-16T05:57:04;58.35;;;31.23;;
36191;SDS011;22233;42.708;23.360;2023-01-16T05:59:29;57.63;;;28.85;;
36191;SDS011;22233;42.708;23.360;2023-01-16T06:01:55;46.75;;;26.35;;
36191;SDS011;22233;42.708;23.360;2023-01-16T06:04:22;52.50;;;28.77;;
36191;SDS011;22233;42.708;23.360;2023-01-16T06:06:48;55.22;;;28.42;;
36191;SDS011;22233;42.708;23.360;2023-01-16T06:09:13;52.63;;;27.90;;
36191;SDS011;22233;42.708;23.360;2023-01-16T06:11:38;51.03;;;26.58;;
36191;SDS011;22233;42.708;23.360;2023-01-16T06:14:04;49.92;;;26.40;;
36191;SDS011;22233;42.708;23.360;2023-01-16T06:16:33;60.13;;;28.30;;
36191;SDS011;22233;42.708;23.360;2023-01-16T06:19:00;50.03;;;24.13;;
36191;SDS011;22233;42.708;23.360;2023-01-16T06:21:26;53.05;;;25.75;;
36191;SDS011;22233;42.708;23.360;2023-01-16T06:23:51;47.10;;;21.42;;
36191;SDS011;22233;42.708;23.360;2023-01-16T06:26:17;43.35;;;20.70;;
36191;SDS011;22233;42.708;23.360;2023-01-16T06:28:42;52.05;;;22.23;;
36191;SDS011;22233;42.708;23.360;2023-01-16T06:31:07;50.92;;;25.30;;
36191;SDS011;22233;42.708;23.360;2023-01-16T06:33:33;51.15;;;25.38;;
36191;SDS011;22233;42.708;23.360;2023-01-16T06:35:59;49.42;;;25.85;;
36191;SDS011;22233;42.708;23.360;2023-01-16T06:38:25;54.67;;;25.85;;
36191;SDS011;22233;42.708;23.360;2023-01-16T06:40:50;41.00;;;19.27;;
36191;SDS011;22233;42.708;23.360;2023-01-16T06:43:21;40.85;;;20.50;;
36191;SDS011;22233;42.708;23.360;2023-01-16T06:45:48;80.28;;;26.05;;
36191;SDS011;22233;42.708;23.360;2023-01-16T06:48:13;82.22;;;27.40;;
36191;SDS011;22233;42.708;23.360;2023-01-16T06:50:39;60.97;;;22.50;;
36191;SDS011;22233;42.708;23.360;2023-01-16T06:53:04;53.20;;;23.33;;
36191;SDS011;22233;42.708;23.360;2023-01-16T06:55:29;51.75;;;23.13;;
36191;SDS011;22233;42.708;23.360;2023-01-16T06:57:55;54.72;;;22.83;;
36191;SDS011;22233;42.708;23.360;2023-01-16T07:00:20;62.30;;;23.80;;
36191;SDS011;22233;42.708;23.360;2023-01-16T07:02:52;55.00;;;23.63;;
36191;SDS011;22233;42.708;23.360;2023-01-16T07:05:22;50.58;;;24.60;;
36191;SDS011;22233;42.708;23.360;2023-01-16T07:07:48;58.90;;;23.48;;
36191;SDS011;22233;42.708;23.360;2023-01-16T07:10:14;51.78;;;24.55;;
36191;SDS011;22233;42.708;23.360;2023-01-16T07:12:40;58.72;;;25.40;;
36191;SDS011;22233;42.708;23.360;2023-01-16T07:15:06;56.28;;;22.08;;
36191;SDS011;22233;42.708;23.360;2023-01-16T07:17:51;61.00;;;23.52;;
36191;SDS011;22233;42.708;23.360;2023-01-16T07:20:35;55.08;;;21.95;;
36191;SDS011;22233;42.708;23.360;2023-01-16T07:23:21;54.13;;;25.90;;
36191;SDS011;22233;42.708;23.360;2023-01-16T07:25:50;64.18;;;29.48;;
36191;SDS011;22233;42.708;23.360;2023-01-16T07:28:16;78.90;;;31.90;;
36191;SDS011;22233;42.708;23.360;2023-01-16T07:30:45;63.75;;;27.52;;
36191;SDS011;22233;42.708;23.360;2023-01-16T07:33:13;71.45;;;28.90;;
36191;SDS011;22233;42.708;23.360;2023-01-16T07:35:39;60.05;;;26.70;;
36191;SDS011;22233;42.708;23.360;2023-01-16T07:38:05;56.80;;;25.02;;
36191;SDS011;22233;42.708;23.360;2023-01-16T07:40:30;64.63;;;26.35;;
36191;SDS011;22233;42.708;23.360;2023-01-16T07:42:56;52.20;;;25.10;;
36191;SDS011;22233;42.708;23.360;2023-01-16T07:45:21;50.08;;;22.77;;
36191;SDS011;22233;42.708;23.360;2023-01-16T07:47:47;55.47;;;23.90;;
36191;SDS011;22233;42.708;23.360;2023-01-16T07:50:12;51.40;;;22.63;;
36191;SDS011;22233;42.708;23.360;2023-01-16T07:52:37;57.53;;;25.13;;
36191;SDS011;22233;42.708;23.360;2023-01-16T07:55:03;66.30;;;25.55;;
36191;SDS011;22233;42.708;23.360;2023-01-16T07:57:29;71.20;;;27.27;;
36191;SDS011;22233;42.708;23.360;2023-01-16T07:59:54;70.28;;;28.27;;
36191;SDS011;22233;42.708;23.360;2023-01-16T08:02:19;63.53;;;25.23;;
36191;SDS011;22233;42.708;23.360;2023-01-16T08:04:45;59.22;;;24.10;;
36191;SDS011;22233;42.708;23.360;2023-01-16T08:07:10;51.78;;;22.27;;
36191;SDS011;22233;42.708;23.360;2023-01-16T08:09:36;53.13;;;22.92;;
36191;SDS011;22233;42.708;23.360;2023-01-16T08:12:01;42.10;;;19.30;;
36191;SDS011;22233;42.708;23.360;2023-01-16T08:14:27;39.13;;;17.95;;
36191;SDS011;22233;42.708;23.360;2023-01-16T08:16:52;39.53;;;17.33;;
36191;SDS011;22233;42.708;23.360;2023-01-16T08:19:18;44.95;;;20.83;;
36191;SDS011;22233;42.708;23.360;2023-01-16T08:21:43;49.83;;;21.33;;
36191;SDS011;22233;42.708;23.360;2023-01-16T08:24:09;45.70;;;22.48;;
36191;SDS011;22233;42.708;23.360;2023-01-16T08:26:37;45.97;;;22.98;;
36191;SDS011;22233;42.708;23.360;2023-01-16T08:29:03;42.33;;;17.95;;
36191;SDS011;22233;42.708;23.360;2023-01-16T08:31:29;41.80;;;20.27;;
36191;SDS011;22233;42.708;23.360;2023-01-16T08:33:55;39.72;;;21.80;;
36191;SDS011;22233;42.708;23.360;2023-01-16T08:36:21;40.22;;;21.38;;
36191;SDS011;22233;42.708;23.360;2023-01-16T08:38:49;42.50;;;20.77;;
36191;SDS011;22233;42.708;23.360;2023-01-16T08:41:15;38.15;;;20.58;;
36191;SDS011;22233;42.708;23.360;2023-01-16T08:43:59;40.33;;;20.73;;
36191;SDS011;22233;42.708;23.360;2023-01-16T08:46:44;55.42;;;24.73;;
36191;SDS011;22233;42.708;23.360;2023-01-16T08:49:39;44.30;;;22.48;;
36191;SDS011;22233;42.708;23.360;2023-01-16T08:52:23;45.08;;;20.88;;
36191;SDS011;22233;42.708;23.360;2023-01-16T08:54:52;39.40;;;21.35;;
36191;SDS011;22233;42.708;23.360;2023-01-16T08:57:17;49.03;;;21.25;;
36191;SDS011;22233;42.708;23.360;2023-01-16T08:59:42;45.15;;;24.50;;
36191;SDS011;22233;42.708;23.360;2023-01-16T09:02:08;52.25;;;22.33;;
36191;SDS011;22233;42.708;23.360;2023-01-16T09:04:35;45.22;;;21.60;;
36191;SDS011;22233;42.708;23.360;2023-01-16T09:07:01;40.35;;;22.85;;
36191;SDS011;22233;42.708;23.360;2023-01-16T09:09:26;47.75;;;23.23;;
36191;SDS011;22233;42.708;23.360;2023-01-16T09:11:55;50.40;;;22.33;;
36191;SDS011;22233;42.708;23.360;2023-01-16T09:14:39;45.35;;;21.95;;
36191;SDS011;22233;42.708;23.360;2023-01-16T09:17:05;42.28;;;20.52;;
36191;SDS011;22233;42.708;23.360;2023-01-16T09:19:31;41.70;;;20.45;;
36191;SDS011;22233;42.708;23.360;2023-01-16T09:21:57;45.67;;;21.60;;
36191;SDS011;22233;42.708;23.360;2023-01-16T09:24:22;58.60;;;27.92;;
36191;SDS011;22233;42.708;23.360;2023-01-16T09:26:48;56.63;;;28.10;;
36191;SDS011;22233;42.708;23.360;2023-01-16T09:29:13;56.20;;;28.75;;
36191;SDS011;22233;42.708;23.360;2023-01-16T09:31:39;51.22;;;25.67;;
36191;SDS011;22233;42.708;23.360;2023-01-16T09:34:04;41.63;;;22.80;;
36191;SDS011;22233;42.708;23.360;2023-01-16T09:36:29;40.33;;;20.35;;
36191;SDS011;22233;42.708;23.360;2023-01-16T09:38:55;32.45;;;17.08;;
36191;SDS011;22233;42.708;23.360;2023-01-16T09:41:20;27.95;;;15.18;;
36191;SDS011;22233;42.708;23.360;2023-01-16T09:44:07;23.98;;;13.15;;
36191;SDS011;22233;42.708;23.360;2023-01-16T09:46:37;30.00;;;15.27;;
36191;SDS011;22233;42.708;23.360;2023-01-16T09:49:15;28.67;;;14.90;;
36191;SDS011;22233;42.708;23.360;2023-01-16T09:51:43;31.92;;;15.43;;
36191;SDS011;22233;42.708;23.360;2023-01-16T09:54:39;27.10;;;12.95;;
36191;SDS011;22233;42.708;23.360;2023-01-16T09:57:28;21.75;;;13.15;;
36191;SDS011;22233;42.708;23.360;2023-01-16T10:00:16;24.67;;;12.02;;
36191;SDS011;22233;42.708;23.360;2023-01-16T10:02:43;20.23;;;11.20;;
36191;SDS011;22233;42.708;23.360;2023-01-16T10:05:08;22.60;;;13.20;;
36191;SDS011;22233;42.708;23.360;2023-01-16T10:13:33;21.88;;;12.68;;
36191;SDS011;22233;42.708;23.360;2023-01-16T10:23:49;21.48;;;12.98;;
36191;SDS011;22233;42.708;23.360;2023-01-16T10:26:17;28.02;;;14.07;;
36191;SDS011;22233;42.708;23.360;2023-01-16T10:31:42;22.52;;;12.43;;
36191;SDS011;22233;42.708;23.360;2023-01-16T10:34:17;24.90;;;13.35;;
36191;SDS011;22233;42.708;23.360;2023-01-16T10:36:50;22.27;;;13.30;;
36191;SDS011;22233;42.708;23.360;2023-01-16T10:39:19;25.33;;;13.77;;
36191;SDS011;22233;42.708;23.360;2023-01-16T10:41:47;24.77;;;13.27;;
36191;SDS011;22233;42.708;23.360;2023-01-16T10:44:34;21.92;;;12.88;;
36191;SDS011;22233;42.708;23.360;2023-01-16T10:47:21;18.88;;;12.20;;
36191;SDS011;22233;42.708;23.360;2023-01-16T10:50:09;23.90;;;13.32;;
36191;SDS011;22233;42.708;23.360;2023-01-16T10:52:35;25.75;;;15.18;;
36191;SDS011;22233;42.708;23.360;2023-01-16T10:55:02;22.60;;;12.48;;
36191;SDS011;22233;42.708;23.360;2023-01-16T10:57:28;22.13;;;13.05;;
36191;SDS011;22233;42.708;23.360;2023-01-16T10:59:55;24.13;;;13.30;;
36191;SDS011;22233;42.708;23.360;2023-01-16T11:02:29;20.67;;;11.95;;
36191;SDS011;22233;42.708;23.360;2023-01-16T11:04:58;23.33;;;13.45;;
36191;SDS011;22233;42.708;23.360;2023-01-16T11:07:26;25.30;;;13.07;;
36191;SDS011;22233;42.708;23.360;2023-01-16T11:09:54;23.98;;;12.32;;
36191;SDS011;22233;42.708;23.360;2023-01-16T11:15:30;29.38;;;13.35;;
36191;SDS011;22233;42.708;23.360;2023-01-16T11:18:30;23.42;;;11.93;;
36191;SDS011;22233;42.708;23.360;2023-01-16T11:20:59;20.30;;;10.75;;
36191;SDS011;22233;42.708;23.360;2023-01-16T11:23:29;20.52;;;10.98;;
36191;SDS011;22233;42.708;23.360;2023-01-16T11:26:01;21.98;;;11.82;;
36191;SDS011;22233;42.708;23.360;2023-01-16T11:28:28;20.40;;;10.38;;
36191;SDS011;22233;42.708;23.360;2023-01-16T11:31:41;22.83;;;11.15;;
36191;SDS011;22233;42.708;23.360;2023-01-16T11:33:45;21.42;;;11.48;;
36191;SDS011;22233;42.708;23.360;2023-01-16T11:36:15;17.30;;;10.70;;
36191;SDS011;22233;42.708;23.360;2023-01-16T11:38:43;19.75;;;12.00;;
36191;SDS011;22233;42.708;23.360;2023-01-16T11:41:10;18.90;;;11.05;;
36191;SDS011;22233;42.708;23.360;2023-01-16T11:43:36;22.65;;;12.48;;
36191;SDS011;22233;42.708;23.360;2023-01-16T11:49:18;19.77;;;11.93;;
36191;SDS011;22233;42.708;23.360;2023-01-16T11:51:51;19.50;;;11.02;;
36191;SDS011;22233;42.708;23.360;2023-01-16T11:54:19;19.25;;;10.73;;
36191;SDS011;22233;42.708;23.360;2023-01-16T12:05:08;21.42;;;11.05;;
36191;SDS011;22233;42.708;23.360;2023-01-16T12:10:29;21.98;;;12.15;;
36191;SDS011;22233;42.708;23.360;2023-01-16T12:13:11;23.80;;;12.40;;
36191;SDS011;22233;42.708;23.360;2023-01-16T12:24:42;19.27;;;10.65;;
36191;SDS011;22233;42.708;23.360;2023-01-16T12:28:02;20.92;;;11.88;;
36191;SDS011;22233;42.708;23.360;2023-01-16T12:33:09;20.75;;;11.85;;
36191;SDS011;22233;42.708;23.360;2023-01-16T12:47:00;12.25;;;7.03;;
36191;SDS011;22233;42.708;23.360;2023-01-16T12:50:08;11.68;;;5.88;;
36191;SDS011;22233;42.708;23.360;2023-01-16T12:57:46;12.35;;;7.13;;
36191;SDS011;22233;42.708;23.360;2023-01-16T13:00:17;12.90;;;7.13;;
36191;SDS011;22233;42.708;23.360;2023-01-16T13:03:02;9.35;;;6.55;;
36191;SDS011;22233;42.708;23.360;2023-01-16T13:05:39;10.95;;;6.90;;
36191;SDS011;22233;42.708;23.360;2023-01-16T13:10:42;11.70;;;7.55;;
36191;SDS011;22233;42.708;23.360;2023-01-16T13:13:33;14.10;;;7.95;;
36191;SDS011;22233;42.708;23.360;2023-01-16T13:16:07;16.67;;;8.20;;
36191;SDS011;22233;42.708;23.360;2023-01-16T13:21:17;11.90;;;7.50;;
36191;SDS011;22233;42.708;23.360;2023-01-16T13:23:47;11.45;;;7.28;;
36191;SDS011;22233;42.708;23.360;2023-01-16T13:26:17;12.13;;;7.53;;
36191;SDS011;22233;42.708;23.360;2023-01-16T13:28:52;14.90;;;8.23;;
36191;SDS011;22233;42.708;23.360;2023-01-16T13:31:25;15.60;;;8.25;;
36191;SDS011;22233;42.708;23.360;2023-01-16T13:33:53;14.55;;;8.75;;
36191;SDS011;22233;42.708;23.360;2023-01-16T13:39:23;11.27;;;6.35;;
36191;SDS011;22233;42.708;23.360;2023-01-16T13:42:11;14.55;;;6.60;;
36191;SDS011;22233;42.708;23.360;2023-01-16T13:44:41;11.80;;;7.40;;
36191;SDS011;22233;42.708;23.360;2023-01-16T13:47:31;13.05;;;8.07;;
36191;SDS011;22233;42.708;23.360;2023-01-16T13:50:03;11.68;;;7.53;;
36191;SDS011;22233;42.708;23.360;2023-01-16T13:52:29;14.45;;;8.55;;
36191;SDS011;22233;42.708;23.360;2023-01-16T13:54:56;14.27;;;7.47;;
36191;SDS011;22233;42.708;23.360;2023-01-16T13:57:24;12.38;;;8.02;;
36191;SDS011;22233;42.708;23.360;2023-01-16T14:00:09;16.10;;;8.52;;
36191;SDS011;22233;42.708;23.360;2023-01-16T14:02:41;15.20;;;7.95;;
36191;SDS011;22233;42.708;23.360;2023-01-16T14:05:15;12.95;;;7.97;;
36191;SDS011;22233;42.708;23.360;2023-01-16T14:10:44;14.38;;;8.38;;
36191;SDS011;22233;42.708;23.360;2023-01-16T14:13:34;11.70;;;7.53;;
36191;SDS011;22233;42.708;23.360;2023-01-16T14:24:02;16.20;;;8.10;;
36191;SDS011;22233;42.708;23.360;2023-01-16T14:29:19;16.08;;;8.50;;
36191;SDS011;22233;42.708;23.360;2023-01-16T14:31:51;21.92;;;10.68;;
36191;SDS011;22233;42.708;23.360;2023-01-16T14:39:49;17.35;;;8.95;;
36191;SDS011;22233;42.708;23.360;2023-01-16T14:42:21;15.65;;;8.30;;
36191;SDS011;22233;42.708;23.360;2023-01-16T14:45:18;13.50;;;8.68;;
36191;SDS011;22233;42.708;23.360;2023-01-16T14:54:19;15.18;;;8.98;;
36191;SDS011;22233;42.708;23.360;2023-01-16T14:57:12;19.27;;;8.77;;
36191;SDS011;22233;42.708;23.360;2023-01-16T15:02:46;17.25;;;9.52;;
36191;SDS011;22233;42.708;23.360;2023-01-16T15:05:15;15.65;;;9.68;;
36191;SDS011;22233;42.708;23.360;2023-01-16T15:07:51;14.90;;;8.27;;
36191;SDS011;22233;42.708;23.360;2023-01-16T15:13:20;15.77;;;10.27;;
36191;SDS011;22233;42.708;23.360;2023-01-16T15:15:47;15.05;;;8.80;;
36191;SDS011;22233;42.708;23.360;2023-01-16T15:18:17;19.88;;;10.30;;
36191;SDS011;22233;42.708;23.360;2023-01-16T15:21:15;15.60;;;9.48;;
36191;SDS011;22233;42.708;23.360;2023-01-16T15:24:01;18.33;;;10.23;;
36191;SDS011;22233;42.708;23.360;2023-01-16T15:29:18;17.38;;;10.18;;
36191;SDS011;22233;42.708;23.360;2023-01-16T15:31:58;16.98;;;9.95;;
36191;SDS011;22233;42.708;23.360;2023-01-16T15:34:28;19.50;;;10.00;;
36191;SDS011;22233;42.708;23.360;2023-01-16T15:36:55;15.65;;;9.18;;
36191;SDS011;22233;42.708;23.360;2023-01-16T15:41:54;15.80;;;9.40;;
36191;SDS011;22233;42.708;23.360;2023-01-16T15:44:40;16.13;;;10.10;;
36191;SDS011;22233;42.708;23.360;2023-01-16T15:53:13;21.33;;;11.82;;
36191;SDS011;22233;42.708;23.360;2023-01-16T15:55:43;17.70;;;10.05;;
36191;SDS011;22233;42.708;23.360;2023-01-16T15:58:13;18.98;;;10.82;;
36191;SDS011;22233;42.708;23.360;2023-01-16T16:00:42;16.85;;;10.50;;
36191;SDS011;22233;42.708;23.360;2023-01-16T16:03:13;17.40;;;9.50;;
36191;SDS011;22233;42.708;23.360;2023-01-16T16:05:45;18.63;;;9.70;;
36191;SDS011;22233;42.708;23.360;2023-01-16T16:08:26;18.70;;;10.40;;
36191;SDS011;22233;42.708;23.360;2023-01-16T16:10:54;17.98;;;10.05;;
36191;SDS011;22233;42.708;23.360;2023-01-16T16:13:42;16.55;;;9.85;;
36191;SDS011;22233;42.708;23.360;2023-01-16T16:16:21;17.25;;;10.07;;
36191;SDS011;22233;42.708;23.360;2023-01-16T16:19:07;17.30;;;9.82;;
36191;SDS011;22233;42.708;23.360;2023-01-16T16:21:41;20.27;;;11.60;;
36191;SDS011;22233;42.708;23.360;2023-01-16T16:24:34;17.60;;;10.05;;
36191;SDS011;22233;42.708;23.360;2023-01-16T16:27:06;16.40;;;9.68;;
36191;SDS011;22233;42.708;23.360;2023-01-16T16:29:33;17.25;;;9.98;;
36191;SDS011;22233;42.708;23.360;2023-01-16T16:32:00;17.60;;;10.18;;
36191;SDS011;22233;42.708;23.360;2023-01-16T16:34:27;19.17;;;10.00;;
36191;SDS011;22233;42.708;23.360;2023-01-16T16:36:56;17.55;;;9.55;;
36191;SDS011;22233;42.708;23.360;2023-01-16T16:47:36;15.20;;;9.23;;
36191;SDS011;22233;42.708;23.360;2023-01-16T16:55:30;16.70;;;8.95;;
36191;SDS011;22233;42.708;23.360;2023-01-16T16:57:59;15.50;;;8.75;;
36191;SDS011;22233;42.708;23.360;2023-01-16T17:00:28;15.13;;;8.77;;
36191;SDS011;22233;42.708;23.360;2023-01-16T17:03:01;18.17;;;9.68;;
36191;SDS011;22233;42.708;23.360;2023-01-16T17:05:34;18.63;;;10.07;;
36191;SDS011;22233;42.708;23.360;2023-01-16T17:08:00;20.00;;;10.65;;
36191;SDS011;22233;42.708;23.360;2023-01-16T17:10:25;18.65;;;10.13;;
36191;SDS011;22233;42.708;23.360;2023-01-16T17:12:51;15.38;;;9.48;;
36191;SDS011;22233;42.708;23.360;2023-01-16T17:15:16;19.38;;;10.80;;
36191;SDS011;22233;42.708;23.360;2023-01-16T17:17:42;18.08;;;9.73;;
36191;SDS011;22233;42.708;23.360;2023-01-16T17:20:18;15.00;;;9.55;;
36191;SDS011;22233;42.708;23.360;2023-01-16T17:22:45;19.67;;;10.50;;
36191;SDS011;22233;42.708;23.360;2023-01-16T17:25:11;15.30;;;10.15;;
36191;SDS011;22233;42.708;23.360;2023-01-16T17:27:47;13.40;;;8.60;;